sensor_id;sensor_type;location;lat;lon;timestamp;P1;durP1;ratioP1;P2;durP2;ratioP2
33644;SDS011;19986;48.190;16.366;2022-12-07T05:05:53;51.30;;;48.20;;
33644;SDS011;19986;48.190;16.366;2022-12-07T05:08:34;53.88;;;50.38;;
33644;SDS011;19986;48.190;16.366;2022-12-07T05:11:01;50.00;;;47.00;;
33644;SDS011;19986;48.190;16.366;2022-12-07T05:13:28;53.25;;;50.10;;
33644;SDS011;19986;48.190;16.366;2022-12-07T05:15:54;54.05;;;50.45;;
33644;SDS011;19986;48.190;16.366;2022-12-07T05:18:20;53.58;;;50.38;;
33644;SDS011;19986;48.190;16.366;2022-12-07T05:20:46;52.28;;;48.53;;
33644;SDS011;19986;48.190;16.366;2022-12-07T05:23:12;51.50;;;48.13;;
33644;SDS011;19986;48.190;16.366;2022-12-07T05:25:38;53.65;;;50.35;;
33644;SDS011;19986;48.190;16.366;2022-12-07T05:28:04;51.42;;;48.25;;
33644;SDS011;19986;48.190;16.366;2022-12-07T05:30:30;51.38;;;48.22;;
33644;SDS011;19986;48.190;16.366;2022-12-07T05:32:57;53.30;;;50.00;;
33644;SDS011;19986;48.190;16.366;2022-12-07T05:35:23;51.33;;;48.22;;
33644;SDS011;19986;48.190;16.366;2022-12-07T05:37:49;49.28;;;46.45;;
33644;SDS011;19986;48.190;16.366;2022-12-07T05:40:15;52.50;;;49.45;;
33644;SDS011;19986;48.190;16.366;2022-12-07T05:42:41;51.35;;;47.60;;
33644;SDS011;19986;48.190;16.366;2022-12-07T05:45:08;50.33;;;46.60;;
33644;SDS011;19986;48.190;16.366;2022-12-07T05:47:34;50.22;;;47.22;;
33644;SDS011;19986;48.190;16.366;2022-12-07T05:50:01;52.10;;;48.80;;
33644;SDS011;19986;48.190;16.366;2022-12-07T05:52:27;53.05;;;49.65;;
33644;SDS011;19986;48.190;16.366;2022-12-07T05:54:52;52.88;;;49.47;;
33644;SDS011;19986;48.190;16.366;2022-12-07T05:57:19;52.25;;;48.78;;
33644;SDS011;19986;48.190;16.366;2022-12-07T05:59:45;50.83;;;47.90;;
33644;SDS011;19986;48.190;16.366;2022-12-07T06:02:12;51.47;;;48.38;;
33644;SDS011;19986;48.190;16.366;2022-12-07T06:04:40;51.92;;;48.83;;
33644;SDS011;19986;48.190;16.366;2022-12-07T06:07:08;50.35;;;47.22;;
33644;SDS011;19986;48.190;16.366;2022-12-07T06:09:35;50.28;;;47.28;;
33644;SDS011;19986;48.190;16.366;2022-12-07T06:12:01;49.10;;;46.33;;
33644;SDS011;19986;48.190;16.366;2022-12-07T06:14:47;49.08;;;46.17;;
33644;SDS011;19986;48.190;16.366;2022-12-07T06:17:14;51.53;;;48.53;;
33644;SDS011;19986;48.190;16.366;2022-12-07T06:19:40;49.65;;;46.80;;
33644;SDS011;19986;48.190;16.366;2022-12-07T06:22:07;49.45;;;46.35;;
33644;SDS011;19986;48.190;16.366;2022-12-07T06:24:34;52.47;;;49.17;;
33644;SDS011;19986;48.190;16.366;2022-12-07T06:27:00;49.15;;;45.75;;
33644;SDS011;19986;48.190;16.366;2022-12-07T06:29:26;49.55;;;46.45;;
33644;SDS011;19986;48.190;16.366;2022-12-07T06:31:52;51.70;;;48.15;;
33644;SDS011;19986;48.190;16.366;2022-12-07T06:34:19;48.25;;;44.95;;
33644;SDS011;19986;48.190;16.366;2022-12-07T06:36:47;56.10;;;52.13;;
33644;SDS011;19986;48.190;16.366;2022-12-07T06:39:17;50.60;;;47.47;;
33644;SDS011;19986;48.190;16.366;2022-12-07T06:41:43;50.28;;;47.15;;
33644;SDS011;19986;48.190;16.366;2022-12-07T06:44:09;50.08;;;46.70;;
33644;SDS011;19986;48.190;16.366;2022-12-07T06:46:35;51.65;;;48.33;;
33644;SDS011;19986;48.190;16.366;2022-12-07T06:49:01;51.55;;;48.17;;
33644;SDS011;19986;48.190;16.366;2022-12-07T06:51:28;50.17;;;46.70;;
33644;SDS011;19986;48.190;16.366;2022-12-07T06:53:55;51.25;;;48.15;;
33644;SDS011;19986;48.190;16.366;2022-12-07T06:56:21;51.72;;;48.53;;
33644;SDS011;19986;48.190;16.366;2022-12-07T06:58:48;49.78;;;46.72;;
33644;SDS011;19986;48.190;16.366;2022-12-07T07:01:15;50.10;;;47.00;;
33644;SDS011;19986;48.190;16.366;2022-12-07T07:03:42;50.88;;;48.05;;
33644;SDS011;19986;48.190;16.366;2022-12-07T07:06:09;50.88;;;47.97;;
33644;SDS011;19986;48.190;16.366;2022-12-07T07:08:36;50.92;;;47.78;;
33644;SDS011;19986;48.190;16.366;2022-12-07T07:11:02;50.30;;;47.03;;
33644;SDS011;19986;48.190;16.366;2022-12-07T07:13:29;50.67;;;47.47;;
33644;SDS011;19986;48.190;16.366;2022-12-07T07:15:55;50.85;;;47.45;;
33644;SDS011;19986;48.190;16.366;2022-12-07T07:18:21;50.15;;;47.15;;
33644;SDS011;19986;48.190;16.366;2022-12-07T07:20:47;48.78;;;45.70;;
33644;SDS011;19986;48.190;16.366;2022-12-07T07:23:13;50.72;;;46.85;;
33644;SDS011;19986;48.190;16.366;2022-12-07T07:25:39;48.80;;;45.80;;
33644;SDS011;19986;48.190;16.366;2022-12-07T07:28:05;50.97;;;47.88;;
33644;SDS011;19986;48.190;16.366;2022-12-07T07:30:30;48.45;;;45.53;;
33644;SDS011;19986;48.190;16.366;2022-12-07T07:32:57;51.22;;;47.88;;
33644;SDS011;19986;48.190;16.366;2022-12-07T07:35:27;48.63;;;45.55;;
33644;SDS011;19986;48.190;16.366;2022-12-07T07:37:54;49.45;;;46.45;;
33644;SDS011;19986;48.190;16.366;2022-12-07T07:40:20;65.07;;;59.22;;
33644;SDS011;19986;48.190;16.366;2022-12-07T07:42:47;47.22;;;44.22;;
33644;SDS011;19986;48.190;16.366;2022-12-07T07:45:14;48.13;;;45.13;;
33644;SDS011;19986;48.190;16.366;2022-12-07T07:47:40;50.95;;;47.83;;
33644;SDS011;19986;48.190;16.366;2022-12-07T07:50:06;47.28;;;44.38;;
33644;SDS011;19986;48.190;16.366;2022-12-07T07:52:32;50.83;;;47.45;;
33644;SDS011;19986;48.190;16.366;2022-12-07T07:54:58;48.65;;;45.95;;
33644;SDS011;19986;48.190;16.366;2022-12-07T07:57:24;48.78;;;45.92;;
33644;SDS011;19986;48.190;16.366;2022-12-07T07:59:50;48.60;;;45.70;;
33644;SDS011;19986;48.190;16.366;2022-12-07T08:02:16;50.78;;;47.15;;
33644;SDS011;19986;48.190;16.366;2022-12-07T08:04:43;47.88;;;44.97;;
33644;SDS011;19986;48.190;16.366;2022-12-07T08:07:10;49.42;;;46.45;;
33644;SDS011;19986;48.190;16.366;2022-12-07T08:09:37;49.80;;;46.80;;
33644;SDS011;19986;48.190;16.366;2022-12-07T08:12:03;53.20;;;49.63;;
33644;SDS011;19986;48.190;16.366;2022-12-07T08:14:29;50.97;;;47.58;;
33644;SDS011;19986;48.190;16.366;2022-12-07T08:16:57;50.45;;;47.25;;
33644;SDS011;19986;48.190;16.366;2022-12-07T08:19:23;49.33;;;46.15;;
33644;SDS011;19986;48.190;16.366;2022-12-07T08:21:49;46.63;;;43.97;;
33644;SDS011;19986;48.190;16.366;2022-12-07T08:24:15;50.03;;;46.88;;
33644;SDS011;19986;48.190;16.366;2022-12-07T08:26:41;46.42;;;43.83;;
33644;SDS011;19986;48.190;16.366;2022-12-07T08:29:07;48.97;;;46.28;;
33644;SDS011;19986;48.190;16.366;2022-12-07T08:31:33;49.42;;;46.35;;
33644;SDS011;19986;48.190;16.366;2022-12-07T08:33:59;46.72;;;44.15;;
33644;SDS011;19986;48.190;16.366;2022-12-07T08:36:25;49.30;;;46.40;;
33644;SDS011;19986;48.190;16.366;2022-12-07T08:38:51;48.33;;;45.30;;
33644;SDS011;19986;48.190;16.366;2022-12-07T08:41:17;47.13;;;44.45;;
33644;SDS011;19986;48.190;16.366;2022-12-07T08:43:43;49.33;;;46.42;;
33644;SDS011;19986;48.190;16.366;2022-12-07T08:46:16;48.00;;;45.50;;
33644;SDS011;19986;48.190;16.366;2022-12-07T08:48:57;46.63;;;44.00;;
33644;SDS011;19986;48.190;16.366;2022-12-07T08:51:29;48.80;;;45.92;;
33644;SDS011;19986;48.190;16.366;2022-12-07T08:53:55;48.58;;;45.67;;
33644;SDS011;19986;48.190;16.366;2022-12-07T08:56:23;46.13;;;43.70;;
33644;SDS011;19986;48.190;16.366;2022-12-07T08:58:49;48.80;;;45.63;;
33644;SDS011;19986;48.190;16.366;2022-12-07T09:01:32;47.50;;;44.97;;
33644;SDS011;19986;48.190;16.366;2022-12-07T09:03:58;46.38;;;43.95;;
33644;SDS011;19986;48.190;16.366;2022-12-07T09:06:24;46.90;;;44.40;;
33644;SDS011;19986;48.190;16.366;2022-12-07T09:08:51;47.08;;;44.65;;
33644;SDS011;19986;48.190;16.366;2022-12-07T09:11:21;46.55;;;43.85;;
33644;SDS011;19986;48.190;16.366;2022-12-07T09:13:47;48.08;;;45.17;;
33644;SDS011;19986;48.190;16.366;2022-12-07T09:16:13;47.17;;;44.58;;
33644;SDS011;19986;48.190;16.366;2022-12-07T09:18:39;45.88;;;43.25;;
33644;SDS011;19986;48.190;16.366;2022-12-07T09:21:05;49.08;;;46.13;;
33644;SDS011;19986;48.190;16.366;2022-12-07T09:23:30;46.40;;;43.88;;
33644;SDS011;19986;48.190;16.366;2022-12-07T09:26:00;47.75;;;44.85;;
33644;SDS011;19986;48.190;16.366;2022-12-07T09:28:27;47.35;;;44.88;;
33644;SDS011;19986;48.190;16.366;2022-12-07T09:30:53;48.53;;;45.75;;
33644;SDS011;19986;48.190;16.366;2022-12-07T09:33:18;48.70;;;45.97;;
33644;SDS011;19986;48.190;16.366;2022-12-07T09:35:48;50.28;;;47.58;;
33644;SDS011;19986;48.190;16.366;2022-12-07T09:38:16;48.00;;;45.40;;
33644;SDS011;19986;48.190;16.366;2022-12-07T09:40:43;49.83;;;47.17;;
33644;SDS011;19986;48.190;16.366;2022-12-07T09:43:17;51.05;;;48.13;;
33644;SDS011;19986;48.190;16.366;2022-12-07T09:45:46;48.38;;;45.65;;
33644;SDS011;19986;48.190;16.366;2022-12-07T09:48:36;47.35;;;44.75;;
33644;SDS011;19986;48.190;16.366;2022-12-07T09:51:02;48.22;;;45.33;;
33644;SDS011;19986;48.190;16.366;2022-12-07T09:53:38;49.25;;;46.38;;
33644;SDS011;19986;48.190;16.366;2022-12-07T09:56:05;48.50;;;45.75;;
33644;SDS011;19986;48.190;16.366;2022-12-07T09:58:31;46.28;;;43.67;;
33644;SDS011;19986;48.190;16.366;2022-12-07T10:03:37;49.90;;;47.30;;
33644;SDS011;19986;48.190;16.366;2022-12-07T10:06:10;49.08;;;46.38;;
33644;SDS011;19986;48.190;16.366;2022-12-07T10:08:37;47.35;;;44.58;;
33644;SDS011;19986;48.190;16.366;2022-12-07T10:11:06;51.20;;;48.22;;
33644;SDS011;19986;48.190;16.366;2022-12-07T10:13:37;51.08;;;48.13;;
33644;SDS011;19986;48.190;16.366;2022-12-07T10:18:52;48.33;;;45.63;;
33644;SDS011;19986;48.190;16.366;2022-12-07T10:21:24;49.80;;;47.10;;
33644;SDS011;19986;48.190;16.366;2022-12-07T10:26:37;48.22;;;45.72;;
33644;SDS011;19986;48.190;16.366;2022-12-07T10:29:16;46.33;;;43.80;;
33644;SDS011;19986;48.190;16.366;2022-12-07T10:31:46;44.67;;;42.17;;
33644;SDS011;19986;48.190;16.366;2022-12-07T10:34:24;46.60;;;44.10;;
33644;SDS011;19986;48.190;16.366;2022-12-07T10:42:28;47.47;;;44.78;;
33644;SDS011;19986;48.190;16.366;2022-12-07T11:15:49;50.60;;;47.90;;
33644;SDS011;19986;48.190;16.366;2022-12-07T11:18:31;47.25;;;44.35;;
33644;SDS011;19986;48.190;16.366;2022-12-07T11:24:03;48.65;;;45.72;;
33644;SDS011;19986;48.190;16.366;2022-12-07T11:37:57;47.17;;;44.22;;
33644;SDS011;19986;48.190;16.366;2022-12-07T11:40:35;48.95;;;45.15;;
33644;SDS011;19986;48.190;16.366;2022-12-07T11:45:52;44.95;;;42.55;;
33644;SDS011;19986;48.190;16.366;2022-12-07T11:48:32;47.03;;;44.53;;
33644;SDS011;19986;48.190;16.366;2022-12-07T11:51:01;46.95;;;44.42;;
33644;SDS011;19986;48.190;16.366;2022-12-07T11:53:37;46.00;;;43.50;;
33644;SDS011;19986;48.190;16.366;2022-12-07T11:56:17;48.22;;;45.53;;
33644;SDS011;19986;48.190;16.366;2022-12-07T11:58:51;46.78;;;44.25;;
33644;SDS011;19986;48.190;16.366;2022-12-07T12:02:00;46.90;;;44.45;;
33644;SDS011;19986;48.190;16.366;2022-12-07T12:07:59;47.22;;;44.65;;
33644;SDS011;19986;48.190;16.366;2022-12-07T12:20:04;48.58;;;45.78;;
33644;SDS011;19986;48.190;16.366;2022-12-07T12:22:43;49.05;;;46.20;;
33644;SDS011;19986;48.190;16.366;2022-12-07T12:25:37;49.50;;;46.40;;
33644;SDS011;19986;48.190;16.366;2022-12-07T12:28:16;49.10;;;46.35;;
33644;SDS011;19986;48.190;16.366;2022-12-07T12:31:14;48.58;;;45.88;;
33644;SDS011;19986;48.190;16.366;2022-12-07T12:33:48;46.58;;;43.80;;
33644;SDS011;19986;48.190;16.366;2022-12-07T12:39:07;45.35;;;42.65;;
33644;SDS011;19986;48.190;16.366;2022-12-07T13:02:20;45.97;;;43.47;;
33644;SDS011;19986;48.190;16.366;2022-12-07T13:07:53;47.10;;;44.45;;
33644;SDS011;19986;48.190;16.366;2022-12-07T13:18:35;49.03;;;45.85;;
33644;SDS011;19986;48.190;16.366;2022-12-07T13:31:36;48.95;;;46.35;;
33644;SDS011;19986;48.190;16.366;2022-12-07T13:34:34;45.05;;;42.55;;
33644;SDS011;19986;48.190;16.366;2022-12-07T13:36:59;48.15;;;45.22;;
33644;SDS011;19986;48.190;16.366;2022-12-07T13:39:54;49.35;;;46.67;;
33644;SDS011;19986;48.190;16.366;2022-12-07T13:42:41;49.42;;;46.25;;
33644;SDS011;19986;48.190;16.366;2022-12-07T13:48:34;49.65;;;46.95;;
33644;SDS011;19986;48.190;16.366;2022-12-07T13:51:02;51.25;;;48.28;;
33644;SDS011;19986;48.190;16.366;2022-12-07T13:53:29;48.75;;;46.05;;
33644;SDS011;19986;48.190;16.366;2022-12-07T13:55:56;52.13;;;49.13;;
33644;SDS011;19986;48.190;16.366;2022-12-07T13:58:24;50.35;;;47.65;;
33644;SDS011;19986;48.190;16.366;2022-12-07T14:00:52;51.90;;;48.85;;
33644;SDS011;19986;48.190;16.366;2022-12-07T14:05:44;50.40;;;47.17;;
33644;SDS011;19986;48.190;16.366;2022-12-07T14:13:22;50.55;;;47.67;;
33644;SDS011;19986;48.190;16.366;2022-12-07T14:15:52;49.42;;;46.45;;
33644;SDS011;19986;48.190;16.366;2022-12-07T14:21:15;49.60;;;46.60;;
33644;SDS011;19986;48.190;16.366;2022-12-07T14:23:45;49.53;;;46.22;;
33644;SDS011;19986;48.190;16.366;2022-12-07T14:26:27;50.72;;;47.85;;
33644;SDS011;19986;48.190;16.366;2022-12-07T14:29:06;49.35;;;46.38;;
33644;SDS011;19986;48.190;16.366;2022-12-07T14:31:51;50.42;;;47.63;;
33644;SDS011;19986;48.190;16.366;2022-12-07T14:34:21;49.72;;;46.50;;
33644;SDS011;19986;48.190;16.366;2022-12-07T14:36:49;50.72;;;47.72;;
33644;SDS011;19986;48.190;16.366;2022-12-07T14:39:15;51.80;;;48.80;;
33644;SDS011;19986;48.190;16.366;2022-12-07T14:41:56;49.88;;;46.90;;
33644;SDS011;19986;48.190;16.366;2022-12-07T14:44:22;49.20;;;46.30;;
33644;SDS011;19986;48.190;16.366;2022-12-07T14:46:49;51.00;;;47.92;;
33644;SDS011;19986;48.190;16.366;2022-12-07T14:49:16;50.58;;;47.63;;
33644;SDS011;19986;48.190;16.366;2022-12-07T14:51:42;52.83;;;49.55;;
33644;SDS011;19986;48.190;16.366;2022-12-07T14:54:15;49.25;;;46.25;;
33644;SDS011;19986;48.190;16.366;2022-12-07T14:56:44;50.63;;;47.72;;
33644;SDS011;19986;48.190;16.366;2022-12-07T14:59:14;49.83;;;46.25;;
33644;SDS011;19986;48.190;16.366;2022-12-07T15:01:41;50.03;;;47.03;;
33644;SDS011;19986;48.190;16.366;2022-12-07T15:04:08;50.03;;;47.03;;
33644;SDS011;19986;48.190;16.366;2022-12-07T15:06:34;50.10;;;47.10;;
33644;SDS011;19986;48.190;16.366;2022-12-07T15:09:01;53.55;;;50.45;;
33644;SDS011;19986;48.190;16.366;2022-12-07T15:11:28;54.55;;;51.20;;
33644;SDS011;19986;48.190;16.366;2022-12-07T15:13:55;50.83;;;47.85;;
33644;SDS011;19986;48.190;16.366;2022-12-07T15:16:37;48.83;;;45.92;;
33644;SDS011;19986;48.190;16.366;2022-12-07T15:19:10;53.22;;;49.88;;
33644;SDS011;19986;48.190;16.366;2022-12-07T15:21:42;52.45;;;49.15;;
33644;SDS011;19986;48.190;16.366;2022-12-07T15:24:10;51.60;;;48.58;;
33644;SDS011;19986;48.190;16.366;2022-12-07T15:26:38;52.70;;;49.35;;
33644;SDS011;19986;48.190;16.366;2022-12-07T15:29:06;53.30;;;50.10;;
33644;SDS011;19986;48.190;16.366;2022-12-07T15:31:33;50.33;;;47.20;;
33644;SDS011;19986;48.190;16.366;2022-12-07T15:34:00;53.60;;;50.20;;
33644;SDS011;19986;48.190;16.366;2022-12-07T15:36:28;49.70;;;46.80;;
33644;SDS011;19986;48.190;16.366;2022-12-07T15:38:56;51.63;;;48.53;;
33644;SDS011;19986;48.190;16.366;2022-12-07T15:41:22;54.17;;;51.00;;
33644;SDS011;19986;48.190;16.366;2022-12-07T15:43:48;52.58;;;49.20;;
33644;SDS011;19986;48.190;16.366;2022-12-07T15:46:34;54.22;;;50.72;;
33644;SDS011;19986;48.190;16.366;2022-12-07T15:49:03;52.80;;;49.60;;
33644;SDS011;19986;48.190;16.366;2022-12-07T15:51:34;52.60;;;49.55;;
33644;SDS011;19986;48.190;16.366;2022-12-07T15:54:00;53.75;;;50.33;;
33644;SDS011;19986;48.190;16.366;2022-12-07T15:56:26;54.92;;;51.20;;
33644;SDS011;19986;48.190;16.366;2022-12-07T15:58:52;54.58;;;51.03;;
33644;SDS011;19986;48.190;16.366;2022-12-07T16:01:19;57.25;;;53.50;;
33644;SDS011;19986;48.190;16.366;2022-12-07T16:03:46;50.38;;;47.28;;
33644;SDS011;19986;48.190;16.366;2022-12-07T16:06:14;55.00;;;51.50;;
33644;SDS011;19986;48.190;16.366;2022-12-07T16:08:45;51.28;;;47.85;;
33644;SDS011;19986;48.190;16.366;2022-12-07T16:11:12;52.22;;;49.13;;
33644;SDS011;19986;48.190;16.366;2022-12-07T16:13:38;51.88;;;48.65;;
33644;SDS011;19986;48.190;16.366;2022-12-07T16:16:09;52.92;;;49.53;;
33644;SDS011;19986;48.190;16.366;2022-12-07T16:18:36;52.03;;;48.72;;
33644;SDS011;19986;48.190;16.366;2022-12-07T16:21:14;54.22;;;50.85;;
33644;SDS011;19986;48.190;16.366;2022-12-07T16:23:40;52.67;;;49.47;;
33644;SDS011;19986;48.190;16.366;2022-12-07T16:26:16;53.90;;;50.60;;
33644;SDS011;19986;48.190;16.366;2022-12-07T16:28:44;52.22;;;49.03;;
33644;SDS011;19986;48.190;16.366;2022-12-07T16:31:11;53.80;;;50.53;;
33644;SDS011;19986;48.190;16.366;2022-12-07T16:33:40;53.30;;;50.10;;
33644;SDS011;19986;48.190;16.366;2022-12-07T16:36:08;54.10;;;50.50;;
33644;SDS011;19986;48.190;16.366;2022-12-07T16:38:35;52.30;;;48.80;;
33644;SDS011;19986;48.190;16.366;2022-12-07T16:41:01;53.95;;;50.17;;
33644;SDS011;19986;48.190;16.366;2022-12-07T16:43:28;55.97;;;52.45;;
33644;SDS011;19986;48.190;16.366;2022-12-07T16:45:54;56.22;;;52.53;;
33644;SDS011;19986;48.190;16.366;2022-12-07T16:48:20;55.63;;;51.42;;
33644;SDS011;19986;48.190;16.366;2022-12-07T16:50:46;57.33;;;52.67;;
33644;SDS011;19986;48.190;16.366;2022-12-07T16:53:12;55.00;;;51.47;;
33644;SDS011;19986;48.190;16.366;2022-12-07T16:55:43;53.20;;;49.75;;
33644;SDS011;19986;48.190;16.366;2022-12-07T16:58:11;54.83;;;51.30;;
33644;SDS011;19986;48.190;16.366;2022-12-07T17:00:38;52.83;;;49.03;;
33644;SDS011;19986;48.190;16.366;2022-12-07T17:03:05;50.60;;;47.28;;
33644;SDS011;19986;48.190;16.366;2022-12-07T17:05:32;53.20;;;49.60;;
33644;SDS011;19986;48.190;16.366;2022-12-07T17:07:58;51.75;;;48.45;;
33644;SDS011;19986;48.190;16.366;2022-12-07T17:10:24;53.85;;;50.38;;
33644;SDS011;19986;48.190;16.366;2022-12-07T17:12:50;50.95;;;47.78;;
33644;SDS011;19986;48.190;16.366;2022-12-07T17:15:16;54.53;;;50.92;;
33644;SDS011;19986;48.190;16.366;2022-12-07T17:17:53;55.78;;;51.65;;
33644;SDS011;19986;48.190;16.366;2022-12-07T17:20:24;55.20;;;51.30;;
33644;SDS011;19986;48.190;16.366;2022-12-07T17:22:51;58.33;;;54.38;;
33644;SDS011;19986;48.190;16.366;2022-12-07T17:25:18;53.65;;;50.08;;
33644;SDS011;19986;48.190;16.366;2022-12-07T17:27:45;54.83;;;51.42;;
33644;SDS011;19986;48.190;16.366;2022-12-07T17:30:12;54.22;;;50.72;;
33644;SDS011;19986;48.190;16.366;2022-12-07T17:32:39;54.90;;;51.40;;
33644;SDS011;19986;48.190;16.366;2022-12-07T17:35:05;53.78;;;49.88;;
33644;SDS011;19986;48.190;16.366;2022-12-07T17:37:32;54.65;;;51.05;;
33644;SDS011;19986;48.190;16.366;2022-12-07T17:39:58;55.45;;;51.80;;
33644;SDS011;19986;48.190;16.366;2022-12-07T17:42:24;55.10;;;51.28;;
33644;SDS011;19986;48.190;16.366;2022-12-07T17:45:08;57.50;;;53.70;;
33644;SDS011;19986;48.190;16.366;2022-12-07T17:47:36;55.22;;;51.72;;
33644;SDS011;19986;48.190;16.366;2022-12-07T17:50:04;54.20;;;50.42;;
33644;SDS011;19986;48.190;16.366;2022-12-07T17:52:31;53.97;;;50.20;;
33644;SDS011;19986;48.190;16.366;2022-12-07T17:55:16;55.92;;;52.08;;
33644;SDS011;19986;48.190;16.366;2022-12-07T17:57:42;52.47;;;49.00;;
33644;SDS011;19986;48.190;16.366;2022-12-07T18:00:08;53.00;;;49.60;;
33644;SDS011;19986;48.190;16.366;2022-12-07T18:02:36;53.97;;;50.58;;
33644;SDS011;19986;48.190;16.366;2022-12-07T18:05:02;54.45;;;50.80;;
33644;SDS011;19986;48.190;16.366;2022-12-07T18:07:29;53.47;;;49.85;;
33644;SDS011;19986;48.190;16.366;2022-12-07T18:09:55;55.17;;;51.67;;
33644;SDS011;19986;48.190;16.366;2022-12-07T18:12:21;52.28;;;48.45;;
33644;SDS011;19986;48.190;16.366;2022-12-07T18:14:48;53.83;;;50.33;;
33644;SDS011;19986;48.190;16.366;2022-12-07T18:17:15;55.35;;;51.85;;
33644;SDS011;19986;48.190;16.366;2022-12-07T18:19:43;57.25;;;53.75;;
33644;SDS011;19986;48.190;16.366;2022-12-07T18:22:10;54.72;;;51.15;;
33644;SDS011;19986;48.190;16.366;2022-12-07T18:24:36;54.40;;;50.58;;
33644;SDS011;19986;48.190;16.366;2022-12-07T18:27:04;52.50;;;49.10;;
33644;SDS011;19986;48.190;16.366;2022-12-07T18:29:30;52.40;;;48.85;;
33644;SDS011;19986;48.190;16.366;2022-12-07T18:31:56;53.22;;;49.83;;
33644;SDS011;19986;48.190;16.366;2022-12-07T18:34:23;54.05;;;50.42;;
33644;SDS011;19986;48.190;16.366;2022-12-07T18:36:50;53.47;;;50.00;;
33644;SDS011;19986;48.190;16.366;2022-12-07T18:39:17;55.53;;;51.83;;
33644;SDS011;19986;48.190;16.366;2022-12-07T18:41:43;54.17;;;50.47;;
33644;SDS011;19986;48.190;16.366;2022-12-07T18:44:10;53.22;;;49.72;;
33644;SDS011;19986;48.190;16.366;2022-12-07T18:46:41;52.20;;;48.67;;
33644;SDS011;19986;48.190;16.366;2022-12-07T18:49:08;53.60;;;49.70;;
33644;SDS011;19986;48.190;16.366;2022-12-07T18:51:37;54.25;;;50.85;;
33644;SDS011;19986;48.190;16.366;2022-12-07T18:54:04;52.67;;;49.10;;
33644;SDS011;19986;48.190;16.366;2022-12-07T18:56:30;52.92;;;49.35;;
33644;SDS011;19986;48.190;16.366;2022-12-07T18:58:57;54.20;;;50.80;;
33644;SDS011;19986;48.190;16.366;2022-12-07T19:01:44;52.17;;;48.70;;
33644;SDS011;19986;48.190;16.366;2022-12-07T19:04:12;52.25;;;48.85;;
33644;SDS011;19986;48.190;16.366;2022-12-07T19:06:43;54.05;;;50.55;;
33644;SDS011;19986;48.190;16.366;2022-12-07T19:09:10;51.78;;;48.53;;
33644;SDS011;19986;48.190;16.366;2022-12-07T19:11:38;52.75;;;49.53;;
33644;SDS011;19986;48.190;16.366;2022-12-07T19:14:15;53.00;;;49.63;;
33644;SDS011;19986;48.190;16.366;2022-12-07T19:16:44;51.53;;;48.22;;
33644;SDS011;19986;48.190;16.366;2022-12-07T19:19:14;52.00;;;48.63;;
33644;SDS011;19986;48.190;16.366;2022-12-07T19:21:45;51.35;;;48.08;;
33644;SDS011;19986;48.190;16.366;2022-12-07T19:24:15;52.95;;;49.50;;
33644;SDS011;19986;48.190;16.366;2022-12-07T19:26:41;52.58;;;49.30;;
33644;SDS011;19986;48.190;16.366;2022-12-07T19:29:09;50.72;;;47.50;;
33644;SDS011;19986;48.190;16.366;2022-12-07T19:31:35;49.58;;;46.28;;
33644;SDS011;19986;48.190;16.366;2022-12-07T19:34:06;54.97;;;51.25;;
33644;SDS011;19986;48.190;16.366;2022-12-07T19:36:36;54.42;;;50.67;;
33644;SDS011;19986;48.190;16.366;2022-12-07T19:39:03;52.05;;;48.65;;
33644;SDS011;19986;48.190;16.366;2022-12-07T19:41:32;53.30;;;49.70;;
33644;SDS011;19986;48.190;16.366;2022-12-07T19:43:59;50.53;;;47.10;;
33644;SDS011;19986;48.190;16.366;2022-12-07T19:46:28;53.55;;;50.22;;
33644;SDS011;19986;48.190;16.366;2022-12-07T19:48:56;51.60;;;48.10;;
33644;SDS011;19986;48.190;16.366;2022-12-07T19:51:23;53.80;;;50.25;;
33644;SDS011;19986;48.190;16.366;2022-12-07T19:53:49;51.03;;;47.83;;
33644;SDS011;19986;48.190;16.366;2022-12-07T19:56:16;54.55;;;51.15;;
33644;SDS011;19986;48.190;16.366;2022-12-07T19:58:44;53.47;;;50.03;;
33644;SDS011;19986;48.190;16.366;2022-12-07T20:01:12;51.55;;;48.25;;
33644;SDS011;19986;48.190;16.366;2022-12-07T20:03:39;52.67;;;49.28;;
33644;SDS011;19986;48.190;16.366;2022-12-07T20:06:06;52.58;;;49.17;;
33644;SDS011;19986;48.190;16.366;2022-12-07T20:08:38;51.53;;;48.30;;
33644;SDS011;19986;48.190;16.366;2022-12-07T20:11:04;52.35;;;49.05;;
33644;SDS011;19986;48.190;16.366;2022-12-07T20:13:51;50.65;;;47.33;;
33644;SDS011;19986;48.190;16.366;2022-12-07T20:16:17;51.92;;;48.83;;
33644;SDS011;19986;48.190;16.366;2022-12-07T20:18:44;52.50;;;48.80;;
33644;SDS011;19986;48.190;16.366;2022-12-07T20:21:11;54.58;;;51.05;;
33644;SDS011;19986;48.190;16.366;2022-12-07T20:23:39;51.53;;;48.28;;
33644;SDS011;19986;48.190;16.366;2022-12-07T20:26:07;53.67;;;50.53;;
33644;SDS011;19986;48.190;16.366;2022-12-07T20:28:34;52.53;;;48.88;;
33644;SDS011;19986;48.190;16.366;2022-12-07T20:31:01;53.67;;;50.40;;
33644;SDS011;19986;48.190;16.366;2022-12-07T20:33:28;51.35;;;48.35;;
33644;SDS011;19986;48.190;16.366;2022-12-07T20:35:59;48.25;;;45.03;;
33644;SDS011;19986;48.190;16.366;2022-12-07T20:38:28;51.70;;;48.60;;
33644;SDS011;19986;48.190;16.366;2022-12-07T20:41:00;52.95;;;49.60;;
33644;SDS011;19986;48.190;16.366;2022-12-07T20:43:29;50.47;;;47.30;;
33644;SDS011;19986;48.190;16.366;2022-12-07T20:45:55;52.15;;;48.95;;
33644;SDS011;19986;48.190;16.366;2022-12-07T20:48:23;52.55;;;49.42;;
33644;SDS011;19986;48.190;16.366;2022-12-07T20:50:51;51.03;;;47.80;;
33644;SDS011;19986;48.190;16.366;2022-12-07T20:53:17;51.08;;;47.88;;
33644;SDS011;19986;48.190;16.366;2022-12-07T20:55:43;52.17;;;49.08;;
33644;SDS011;19986;48.190;16.366;2022-12-07T20:58:11;53.25;;;49.92;;
